Eurasian Highway — 7JKY — position and weather

sailwx.info

Track history (hours):
 
Tides and Currents Weather Stations Pressure Air Temp Water Temp Dewpoint Dewpoint Depression Visibility Wind Speed Wind Dir Waves Ship Positions

Eurasian Highway

Last reported at 2015-May-14 00:32 UTC. Time now 2015-May-25 05:27 UTC.
Position N 01°56' E 102°20'.
Warning: this ship's position is 11 days out of date.

Length 199 m; draft 8.3 m.

Type: Cargo ship. MMSI: 432839000.

Date/timePositionNaut miles runAvg speedWind from/ knotsBaromVisibWave heightAir tempDewpointWater temp
2015-May-14 00:32N 01°56' E 102°20'1818.2
2015-May-13 23:33N 01°48' E 102°36'7717.5
2015-May-13 19:10N 01°09' E 103°42'811.0
2015-May-13 18:28N 01°11' E 103°50'8 8.8
2015-May-13 17:33N 01°17' E 103°56'0 0.1
2015-May-13 16:27N 01°17' E 103°56'0 0.0
2015-May-13 15:33N 01°17' E 103°56'0 0.0
2015-May-13 14:33N 01°17' E 103°56'0 0.0
2015-May-13 13:33N 01°17' E 103°56'0 0.0
2015-May-13 12:26N 01°17' E 103°56'0 0.0
2015-May-13 11:32N 01°17' E 103°56'0 0.0
2015-May-13 10:26N 01°17' E 103°56'0 0.0
2015-May-13 09:32N 01°17' E 103°56'0 0.0
2015-May-13 08:26N 01°17' E 103°56'0 0.0
2015-May-13 07:32N 01°17' E 103°56'0 0.0
2015-May-13 06:33N 01°17' E 103°56'6 5.9
2015-May-13 05:33N 01°13' E 103°52'8 8.1
2015-May-13 04:32N 01°17' E 103°45'0 0.1
2015-May-13 02:22N 01°17' E 103°45'0 0.0
2015-May-13 00:19N 01°17' E 103°45'0 0.0
2015-May-12 23:10N 01°17' E 103°45'0 0.0
2015-May-12 22:28N 01°17' E 103°45'0 0.0
2015-May-12 18:22N 01°17' E 103°45'1 0.9
2015-May-12 17:27N 01°16' E 103°45'7 7.5
2015-May-12 16:27N 01°13' E 103°52'4 3.9
2015-May-12 15:33N 01°14' E 103°55'7 7.4
2015-May-12 14:33N 01°16' E 104°03'8 7.9
2015-May-12 13:33N 01°17' E 104°10'  
Track history (hours):
 
Tides and Currents Weather Stations Pressure Air Temp Water Temp Dewpoint Dewpoint Depression Visibility Wind Speed Wind Dir Waves Ship Positions

Eurasian Highway

Last reported at 2015-May-14 00:32 UTC. Time now 2015-May-25 05:27 UTC.
Position N 01°56' E 102°20'.
Warning: this ship's position is 11 days out of date.

Length 199 m; draft 8.3 m.

Type: Cargo ship. MMSI: 432839000.

Date/timePositionNaut miles runAvg speedWind from/ knotsBaromVisibWave heightAir tempDewpointWater temp
2015-May-14 00:32N 01°56' E 102°20'1818.2
2015-May-13 23:33N 01°48' E 102°36'7717.5
2015-May-13 19:10N 01°09' E 103°42'811.0
2015-May-13 18:28N 01°11' E 103°50'8 8.8
2015-May-13 17:33N 01°17' E 103°56'0 0.1
2015-May-13 16:27N 01°17' E 103°56'0 0.0
2015-May-13 15:33N 01°17' E 103°56'0 0.0
2015-May-13 14:33N 01°17' E 103°56'0 0.0
2015-May-13 13:33N 01°17' E 103°56'0 0.0
2015-May-13 12:26N 01°17' E 103°56'0 0.0
2015-May-13 11:32N 01°17' E 103°56'0 0.0
2015-May-13 10:26N 01°17' E 103°56'0 0.0
2015-May-13 09:32N 01°17' E 103°56'0 0.0
2015-May-13 08:26N 01°17' E 103°56'0 0.0
2015-May-13 07:32N 01°17' E 103°56'0 0.0
2015-May-13 06:33N 01°17' E 103°56'6 5.9
2015-May-13 05:33N 01°13' E 103°52'8 8.1
2015-May-13 04:32N 01°17' E 103°45'0 0.1
2015-May-13 02:22N 01°17' E 103°45'0 0.0
2015-May-13 00:19N 01°17' E 103°45'0 0.0
2015-May-12 23:10N 01°17' E 103°45'0 0.0
2015-May-12 22:28N 01°17' E 103°45'0 0.0
2015-May-12 18:22N 01°17' E 103°45'1 0.9
2015-May-12 17:27N 01°16' E 103°45'7 7.5
2015-May-12 16:27N 01°13' E 103°52'4 3.9
2015-May-12 15:33N 01°14' E 103°55'7 7.4
2015-May-12 14:33N 01°16' E 104°03'8 7.9
2015-May-12 13:33N 01°17' E 104°10'  

Dump ship's entire track history